sensor_id;sensor_type;location;lat;lon;timestamp;pressure;altitude;pressure_sealevel;temperature;humidity
73748;BME280;62056;52.130;5.428;2023-04-25T00:01:12;101298.31;;;6.19;79.63
73748;BME280;62056;52.130;5.428;2023-04-25T00:03:39;101308.53;;;6.16;79.64
73748;BME280;62056;52.130;5.428;2023-04-25T00:06:07;101316.97;;;6.13;79.63
73748;BME280;62056;52.130;5.428;2023-04-25T00:08:34;101310.56;;;6.08;80.12
73748;BME280;62056;52.130;5.428;2023-04-25T00:11:00;101316.88;;;6.07;80.46
73748;BME280;62056;52.130;5.428;2023-04-25T00:13:27;101321.38;;;6.07;80.50
73748;BME280;62056;52.130;5.428;2023-04-25T00:15:53;101323.47;;;6.05;80.23
73748;BME280;62056;52.130;5.428;2023-04-25T00:18:20;101321.84;;;6.04;80.27
73748;BME280;62056;52.130;5.428;2023-04-25T00:20:48;101326.34;;;6.03;80.28
73748;BME280;62056;52.130;5.428;2023-04-25T00:23:16;101333.22;;;6.04;80.21
73748;BME280;62056;52.130;5.428;2023-04-25T00:25:48;101324.50;;;6.04;80.54
73748;BME280;62056;52.130;5.428;2023-04-25T00:28:15;101331.63;;;6.03;80.78
73748;BME280;62056;52.130;5.428;2023-04-25T00:30:42;101327.13;;;6.04;80.42
73748;BME280;62056;52.130;5.428;2023-04-25T00:33:09;101328.75;;;6.05;80.58
73748;BME280;62056;52.130;5.428;2023-04-25T00:35:36;101332.41;;;6.04;80.85
73748;BME280;62056;52.130;5.428;2023-04-25T00:38:03;101327.69;;;6.06;80.90
73748;BME280;62056;52.130;5.428;2023-04-25T00:40:29;101329.31;;;6.07;81.28
73748;BME280;62056;52.130;5.428;2023-04-25T00:42:56;101329.06;;;6.08;80.78
73748;BME280;62056;52.130;5.428;2023-04-25T00:45:27;101332.50;;;6.09;81.10
73748;BME280;62056;52.130;5.428;2023-04-25T00:47:54;101334.34;;;6.08;81.03
73748;BME280;62056;52.130;5.428;2023-04-25T00:50:22;101344.91;;;6.08;80.80
73748;BME280;62056;52.130;5.428;2023-04-25T00:52:49;101341.44;;;6.08;80.96
73748;BME280;62056;52.130;5.428;2023-04-25T00:55:17;101339.63;;;6.08;80.61
73748;BME280;62056;52.130;5.428;2023-04-25T00:57:44;101341.72;;;6.06;80.72
73748;BME280;62056;52.130;5.428;2023-04-25T01:00:11;101335.06;;;6.04;80.78
73748;BME280;62056;52.130;5.428;2023-04-25T01:02:39;101332.91;;;6.01;80.75
73748;BME280;62056;52.130;5.428;2023-04-25T01:05:07;101330.50;;;5.99;80.60
73748;BME280;62056;52.130;5.428;2023-04-25T01:07:34;101332.59;;;5.97;80.54
73748;BME280;62056;52.130;5.428;2023-04-25T01:10:01;101333.66;;;5.96;80.48
73748;BME280;62056;52.130;5.428;2023-04-25T01:12:28;101331.25;;;5.95;80.54
73748;BME280;62056;52.130;5.428;2023-04-25T01:14:55;101332.50;;;5.92;80.60
73748;BME280;62056;52.130;5.428;2023-04-25T01:17:22;101336.16;;;5.91;80.43
73748;BME280;62056;52.130;5.428;2023-04-25T01:19:49;101340.88;;;5.89;81.03
73748;BME280;62056;52.130;5.428;2023-04-25T01:22:17;101345.38;;;5.88;81.38
73748;BME280;62056;52.130;5.428;2023-04-25T01:24:44;101346.66;;;5.86;80.43
73748;BME280;62056;52.130;5.428;2023-04-25T01:27:10;101342.91;;;5.82;80.66
73748;BME280;62056;52.130;5.428;2023-04-25T01:29:38;101350.50;;;5.78;80.24
73748;BME280;62056;52.130;5.428;2023-04-25T01:32:06;101354.91;;;5.73;80.50
73748;BME280;62056;52.130;5.428;2023-04-25T01:34:33;101358.59;;;5.72;80.49
73748;BME280;62056;52.130;5.428;2023-04-25T01:37:00;101356.69;;;5.67;80.15
73748;BME280;62056;52.130;5.428;2023-04-25T01:39:28;101360.00;;;5.62;80.49
73748;BME280;62056;52.130;5.428;2023-04-25T01:41:54;101361.28;;;5.60;81.01
73748;BME280;62056;52.130;5.428;2023-04-25T01:44:23;101362.59;;;5.57;80.81
73748;BME280;62056;52.130;5.428;2023-04-25T01:46:50;101366.75;;;5.53;80.27
73748;BME280;62056;52.130;5.428;2023-04-25T01:49:17;101363.53;;;5.51;81.40
73748;BME280;62056;52.130;5.428;2023-04-25T01:51:44;101370.31;;;5.47;80.91
73748;BME280;62056;52.130;5.428;2023-04-25T01:54:15;101358.97;;;5.46;81.06
73748;BME280;62056;52.130;5.428;2023-04-25T01:56:41;101370.81;;;5.44;80.65
73748;BME280;62056;52.130;5.428;2023-04-25T01:59:08;101364.97;;;5.42;80.56
73748;BME280;62056;52.130;5.428;2023-04-25T02:01:35;101370.47;;;5.40;80.62
73748;BME280;62056;52.130;5.428;2023-04-25T02:04:01;101383.13;;;5.38;80.81
73748;BME280;62056;52.130;5.428;2023-04-25T02:06:28;101388.84;;;5.35;80.51
73748;BME280;62056;52.130;5.428;2023-04-25T02:08:55;101382.22;;;5.33;80.75
73748;BME280;62056;52.130;5.428;2023-04-25T02:11:22;101378.00;;;5.32;81.13
73748;BME280;62056;52.130;5.428;2023-04-25T02:13:48;101386.13;;;5.30;80.66
73748;BME280;62056;52.130;5.428;2023-04-25T02:16:15;101387.16;;;5.29;81.11
73748;BME280;62056;52.130;5.428;2023-04-25T02:18:42;101383.97;;;5.27;80.64
73748;BME280;62056;52.130;5.428;2023-04-25T02:21:09;101383.97;;;5.27;80.73
73748;BME280;62056;52.130;5.428;2023-04-25T02:23:36;101391.06;;;5.26;81.03
73748;BME280;62056;52.130;5.428;2023-04-25T02:26:02;101384.22;;;5.25;80.74
73748;BME280;62056;52.130;5.428;2023-04-25T02:28:29;101390.78;;;5.23;80.71
73748;BME280;62056;52.130;5.428;2023-04-25T02:30:56;101390.19;;;5.21;80.08
73748;BME280;62056;52.130;5.428;2023-04-25T02:33:23;101387.22;;;5.17;80.79
73748;BME280;62056;52.130;5.428;2023-04-25T02:35:50;101391.16;;;5.15;80.13
73748;BME280;62056;52.130;5.428;2023-04-25T02:38:16;101396.66;;;5.13;80.24
73748;BME280;62056;52.130;5.428;2023-04-25T02:40:44;101391.25;;;5.08;80.15
73748;BME280;62056;52.130;5.428;2023-04-25T02:43:10;101389.91;;;5.05;80.69
73748;BME280;62056;52.130;5.428;2023-04-25T02:45:37;101392.78;;;5.04;80.30
73748;BME280;62056;52.130;5.428;2023-04-25T02:48:04;101396.91;;;5.00;80.86
73748;BME280;62056;52.130;5.428;2023-04-25T02:50:31;101395.09;;;5.00;80.38
73748;BME280;62056;52.130;5.428;2023-04-25T02:52:57;101384.78;;;4.99;80.37
73748;BME280;62056;52.130;5.428;2023-04-25T02:55:24;101390.63;;;5.01;80.31
73748;BME280;62056;52.130;5.428;2023-04-25T02:57:53;101380.31;;;4.99;80.51
73748;BME280;62056;52.130;5.428;2023-04-25T03:00:21;101391.91;;;4.98;80.33
73748;BME280;62056;52.130;5.428;2023-04-25T03:02:48;101400.03;;;4.97;80.39
73748;BME280;62056;52.130;5.428;2023-04-25T03:05:15;101400.25;;;4.95;80.67
73748;BME280;62056;52.130;5.428;2023-04-25T03:07:43;101401.06;;;4.96;80.56
73748;BME280;62056;52.130;5.428;2023-04-25T03:10:11;101400.81;;;4.97;81.01
73748;BME280;62056;52.130;5.428;2023-04-25T03:12:38;101394.19;;;4.95;80.67
73748;BME280;62056;52.130;5.428;2023-04-25T03:15:05;101394.97;;;4.95;81.15
73748;BME280;62056;52.130;5.428;2023-04-25T03:17:32;101397.63;;;4.95;80.86
73748;BME280;62056;52.130;5.428;2023-04-25T03:19:59;101396.03;;;4.94;80.50
73748;BME280;62056;52.130;5.428;2023-04-25T03:22:26;101403.38;;;4.92;80.62
73748;BME280;62056;52.130;5.428;2023-04-25T03:24:52;101407.75;;;4.86;80.65
73748;BME280;62056;52.130;5.428;2023-04-25T03:27:19;101412.22;;;4.86;81.11
73748;BME280;62056;52.130;5.428;2023-04-25T03:29:46;101410.03;;;4.83;80.63
73748;BME280;62056;52.130;5.428;2023-04-25T03:32:12;101420.34;;;4.84;80.73
73748;BME280;62056;52.130;5.428;2023-04-25T03:34:39;101413.50;;;4.83;80.88
73748;BME280;62056;52.130;5.428;2023-04-25T03:37:06;101413.72;;;4.82;80.44
73748;BME280;62056;52.130;5.428;2023-04-25T03:39:33;101422.41;;;4.82;80.43
73748;BME280;62056;52.130;5.428;2023-04-25T03:41:59;101424.59;;;4.85;81.32
73748;BME280;62056;52.130;5.428;2023-04-25T03:44:26;101423.31;;;4.88;80.91
73748;BME280;62056;52.130;5.428;2023-04-25T03:46:53;101424.13;;;4.89;81.11
73748;BME280;62056;52.130;5.428;2023-04-25T03:49:19;101426.75;;;4.89;81.20
73748;BME280;62056;52.130;5.428;2023-04-25T03:51:46;101431.78;;;4.90;81.05
73748;BME280;62056;52.130;5.428;2023-04-25T03:54:13;101427.88;;;4.93;81.46
73748;BME280;62056;52.130;5.428;2023-04-25T03:56:39;101439.00;;;4.95;81.33
73748;BME280;62056;52.130;5.428;2023-04-25T03:59:06;101426.38;;;4.97;81.20
73748;BME280;62056;52.130;5.428;2023-04-25T04:01:34;101427.41;;;4.96;81.64
73748;BME280;62056;52.130;5.428;2023-04-25T04:04:00;101432.44;;;4.97;81.84
73748;BME280;62056;52.130;5.428;2023-04-25T04:06:27;101428.78;;;4.98;81.36
73748;BME280;62056;52.130;5.428;2023-04-25T04:08:55;101437.28;;;5.00;81.17
73748;BME280;62056;52.130;5.428;2023-04-25T04:11:22;101439.09;;;5.00;81.79
73748;BME280;62056;52.130;5.428;2023-04-25T04:13:48;101444.94;;;5.02;81.29
73748;BME280;62056;52.130;5.428;2023-04-25T04:16:15;101442.53;;;5.00;81.40
73748;BME280;62056;52.130;5.428;2023-04-25T04:18:42;101446.53;;;5.03;81.62
73748;BME280;62056;52.130;5.428;2023-04-25T04:21:09;101448.97;;;5.04;81.21
73748;BME280;62056;52.130;5.428;2023-04-25T04:23:35;101444.47;;;5.05;81.49
73748;BME280;62056;52.130;5.428;2023-04-25T04:26:05;101445.03;;;5.07;81.05
73748;BME280;62056;52.130;5.428;2023-04-25T04:28:31;101442.19;;;5.09;81.05
73748;BME280;62056;52.130;5.428;2023-04-25T04:30:58;101439.28;;;5.10;81.33
73748;BME280;62056;52.130;5.428;2023-04-25T04:33:25;101451.22;;;5.13;81.20
73748;BME280;62056;52.130;5.428;2023-04-25T04:35:52;101457.28;;;5.13;81.44
73748;BME280;62056;52.130;5.428;2023-04-25T04:38:19;101456.00;;;5.16;80.65
73748;BME280;62056;52.130;5.428;2023-04-25T04:40:48;101458.44;;;5.17;81.01
73748;BME280;62056;52.130;5.428;2023-04-25T04:43:14;101462.66;;;5.18;81.33
73748;BME280;62056;52.130;5.428;2023-04-25T04:45:43;101463.22;;;5.20;81.32
73748;BME280;62056;52.130;5.428;2023-04-25T04:48:11;101464.03;;;5.21;80.72
73748;BME280;62056;52.130;5.428;2023-04-25T04:50:40;101468.84;;;5.24;81.11
73748;BME280;62056;52.130;5.428;2023-04-25T04:53:07;101471.47;;;5.24;81.03
73748;BME280;62056;52.130;5.428;2023-04-25T04:55:34;101471.25;;;5.25;80.56
73748;BME280;62056;52.130;5.428;2023-04-25T04:58:00;101473.63;;;5.27;80.42
73748;BME280;62056;52.130;5.428;2023-04-25T05:00:27;101482.09;;;5.29;80.61
73748;BME280;62056;52.130;5.428;2023-04-25T05:02:56;101482.94;;;5.30;80.57
73748;BME280;62056;52.130;5.428;2023-04-25T05:05:23;101491.41;;;5.32;80.40
73748;BME280;62056;52.130;5.428;2023-04-25T05:07:49;101492.19;;;5.32;80.63
73748;BME280;62056;52.130;5.428;2023-04-25T05:10:17;101493.00;;;5.33;80.13
73748;BME280;62056;52.130;5.428;2023-04-25T05:12:44;101499.06;;;5.33;80.48
73748;BME280;62056;52.130;5.428;2023-04-25T05:15:11;101505.16;;;5.34;80.04
73748;BME280;62056;52.130;5.428;2023-04-25T05:17:38;101507.78;;;5.34;80.07
73748;BME280;62056;52.130;5.428;2023-04-25T05:20:06;101509.38;;;5.35;80.37
73748;BME280;62056;52.130;5.428;2023-04-25T05:22:38;101509.38;;;5.35;80.26
73748;BME280;62056;52.130;5.428;2023-04-25T05:25:05;101508.38;;;5.36;80.11
73748;BME280;62056;52.130;5.428;2023-04-25T05:27:31;101519.47;;;5.38;79.64
73748;BME280;62056;52.130;5.428;2023-04-25T05:29:58;101521.06;;;5.39;80.35
73748;BME280;62056;52.130;5.428;2023-04-25T05:32:25;101521.06;;;5.39;80.12
73748;BME280;62056;52.130;5.428;2023-04-25T05:34:52;101521.84;;;5.39;80.44
73748;BME280;62056;52.130;5.428;2023-04-25T05:37:18;101529.31;;;5.42;80.11
73748;BME280;62056;52.130;5.428;2023-04-25T05:39:45;101524.03;;;5.42;80.21
73748;BME280;62056;52.130;5.428;2023-04-25T05:42:12;101524.63;;;5.44;80.41
73748;BME280;62056;52.130;5.428;2023-04-25T05:44:38;101530.47;;;5.46;80.54
73748;BME280;62056;52.130;5.428;2023-04-25T05:47:05;101521.50;;;5.47;80.58
73748;BME280;62056;52.130;5.428;2023-04-25T05:49:33;101526.88;;;5.53;80.86
73748;BME280;62056;52.130;5.428;2023-04-25T05:52:00;101532.72;;;5.55;80.88
73748;BME280;62056;52.130;5.428;2023-04-25T05:54:27;101536.72;;;5.57;80.26
73748;BME280;62056;52.130;5.428;2023-04-25T05:56:56;101537.06;;;5.61;80.78
73748;BME280;62056;52.130;5.428;2023-04-25T05:59:23;101541.84;;;5.64;80.56
73748;BME280;62056;52.130;5.428;2023-04-25T06:01:49;101546.13;;;5.65;80.58
73748;BME280;62056;52.130;5.428;2023-04-25T06:04:16;101544.84;;;5.67;80.64
73748;BME280;62056;52.130;5.428;2023-04-25T06:06:43;101551.25;;;5.72;80.58
73748;BME280;62056;52.130;5.428;2023-04-25T06:09:10;101554.22;;;5.75;80.43
73748;BME280;62056;52.130;5.428;2023-04-25T06:11:39;101557.16;;;5.79;80.80
73748;BME280;62056;52.130;5.428;2023-04-25T06:14:06;101562.00;;;5.82;80.54
73748;BME280;62056;52.130;5.428;2023-04-25T06:16:33;101567.59;;;5.85;80.37
73748;BME280;62056;52.130;5.428;2023-04-25T06:19:00;101567.69;;;5.91;80.47
73748;BME280;62056;52.130;5.428;2023-04-25T06:21:27;101569.41;;;5.97;80.52
73748;BME280;62056;52.130;5.428;2023-04-25T06:23:54;101573.25;;;6.06;80.82
73748;BME280;62056;52.130;5.428;2023-04-25T06:26:20;101558.88;;;6.14;80.49
73748;BME280;62056;52.130;5.428;2023-04-25T06:28:47;101570.09;;;6.21;79.54
73748;BME280;62056;52.130;5.428;2023-04-25T06:31:13;101566.75;;;6.25;78.76
73748;BME280;62056;52.130;5.428;2023-04-25T06:33:40;101569.56;;;6.36;79.54
73748;BME280;62056;52.130;5.428;2023-04-25T06:36:07;101574.19;;;6.45;79.98
73748;BME280;62056;52.130;5.428;2023-04-25T06:38:33;101575.69;;;6.58;79.75
73748;BME280;62056;52.130;5.428;2023-04-25T06:41:04;101572.75;;;6.72;80.26
73748;BME280;62056;52.130;5.428;2023-04-25T06:43:31;101577.44;;;6.86;81.01
73748;BME280;62056;52.130;5.428;2023-04-25T06:45:59;101574.63;;;6.93;76.57
73748;BME280;62056;52.130;5.428;2023-04-25T06:48:27;101580.06;;;7.03;75.36
73748;BME280;62056;52.130;5.428;2023-04-25T06:50:54;101572.56;;;7.17;78.52
73748;BME280;62056;52.130;5.428;2023-04-25T06:53:21;101579.81;;;7.27;78.10
73748;BME280;62056;52.130;5.428;2023-04-25T06:55:47;101586.72;;;7.28;74.79
73748;BME280;62056;52.130;5.428;2023-04-25T06:58:14;101584.75;;;7.40;79.09
73748;BME280;62056;52.130;5.428;2023-04-25T07:00:40;101586.78;;;7.55;79.52
73748;BME280;62056;52.130;5.428;2023-04-25T07:03:07;101594.34;;;7.68;78.96
73748;BME280;62056;52.130;5.428;2023-04-25T07:05:35;101602.13;;;7.75;78.94
73748;BME280;62056;52.130;5.428;2023-04-25T07:08:02;101594.19;;;7.75;76.61
73748;BME280;62056;52.130;5.428;2023-04-25T07:10:29;101596.63;;;7.82;76.29
73748;BME280;62056;52.130;5.428;2023-04-25T07:12:56;101601.13;;;7.81;73.33
73748;BME280;62056;52.130;5.428;2023-04-25T07:15:22;101603.25;;;7.84;70.81
73748;BME280;62056;52.130;5.428;2023-04-25T07:17:51;101595.88;;;7.86;69.15
73748;BME280;62056;52.130;5.428;2023-04-25T07:20:18;101606.69;;;7.85;73.33
73748;BME280;62056;52.130;5.428;2023-04-25T07:22:45;101617.97;;;7.97;74.67
73748;BME280;62056;52.130;5.428;2023-04-25T07:25:11;101616.47;;;8.06;74.44
73748;BME280;62056;52.130;5.428;2023-04-25T07:27:39;101624.22;;;8.13;73.18
73748;BME280;62056;52.130;5.428;2023-04-25T07:30:06;101618.63;;;8.09;70.58
73748;BME280;62056;52.130;5.428;2023-04-25T07:32:33;101621.94;;;8.27;74.72
73748;BME280;62056;52.130;5.428;2023-04-25T07:35:00;101627.34;;;8.37;69.47
73748;BME280;62056;52.130;5.428;2023-04-25T07:37:28;101618.78;;;8.52;73.38
73748;BME280;62056;52.130;5.428;2023-04-25T07:39:54;101614.59;;;8.61;73.38
73748;BME280;62056;52.130;5.428;2023-04-25T07:42:21;101628.78;;;8.77;72.65
73748;BME280;62056;52.130;5.428;2023-04-25T07:44:48;101622.94;;;8.75;71.57
73748;BME280;62056;52.130;5.428;2023-04-25T07:47:14;101637.53;;;8.83;69.09
73748;BME280;62056;52.130;5.428;2023-04-25T07:49:41;101626.75;;;8.95;69.71
73748;BME280;62056;52.130;5.428;2023-04-25T07:52:08;101634.19;;;8.98;69.82
73748;BME280;62056;52.130;5.428;2023-04-25T07:55:02;101640.41;;;9.14;67.24
73748;BME280;62056;52.130;5.428;2023-04-25T07:57:32;101643.13;;;8.81;63.55
73748;BME280;62056;52.130;5.428;2023-04-25T08:00:16;101639.56;;;9.03;65.95
73748;BME280;62056;52.130;5.428;2023-04-25T08:02:43;101649.03;;;8.94;63.23
73748;BME280;62056;52.130;5.428;2023-04-25T08:05:10;101647.13;;;8.89;63.52
73748;BME280;62056;52.130;5.428;2023-04-25T08:07:41;101651.47;;;9.00;63.12
73748;BME280;62056;52.130;5.428;2023-04-25T08:10:08;101658.97;;;9.08;64.16
73748;BME280;62056;52.130;5.428;2023-04-25T08:12:35;101659.03;;;9.19;63.90
73748;BME280;62056;52.130;5.428;2023-04-25T08:15:03;101658.78;;;9.25;62.47
73748;BME280;62056;52.130;5.428;2023-04-25T08:17:30;101670.44;;;9.24;62.73
73748;BME280;62056;52.130;5.428;2023-04-25T08:19:57;101666.47;;;9.27;62.58
73748;BME280;62056;52.130;5.428;2023-04-25T08:22:24;101681.19;;;9.45;62.08
73748;BME280;62056;52.130;5.428;2023-04-25T08:24:53;101689.56;;;9.21;61.10
73748;BME280;62056;52.130;5.428;2023-04-25T08:27:20;101689.66;;;8.99;61.12
73748;BME280;62056;52.130;5.428;2023-04-25T08:29:47;101698.31;;;8.84;62.75
73748;BME280;62056;52.130;5.428;2023-04-25T08:32:14;101701.41;;;8.76;62.09
73748;BME280;62056;52.130;5.428;2023-04-25T08:34:40;101702.72;;;8.74;62.57
73748;BME280;62056;52.130;5.428;2023-04-25T08:37:08;101698.81;;;8.81;61.98
73748;BME280;62056;52.130;5.428;2023-04-25T08:39:43;101703.59;;;8.79;60.97
73748;BME280;62056;52.130;5.428;2023-04-25T08:42:12;101702.28;;;8.82;60.87
73748;BME280;62056;52.130;5.428;2023-04-25T08:44:39;101703.84;;;8.83;60.15
73748;BME280;62056;52.130;5.428;2023-04-25T08:47:06;101711.88;;;8.88;60.79
73748;BME280;62056;52.130;5.428;2023-04-25T08:49:33;101702.91;;;8.94;60.24
73748;BME280;62056;52.130;5.428;2023-04-25T08:52:03;101706.97;;;9.07;59.89
73748;BME280;62056;52.130;5.428;2023-04-25T08:54:32;101713.25;;;8.96;59.27
73748;BME280;62056;52.130;5.428;2023-04-25T08:57:02;101721.28;;;9.06;59.04
73748;BME280;62056;52.130;5.428;2023-04-25T08:59:32;101729.22;;;9.06;58.89
73748;BME280;62056;52.130;5.428;2023-04-25T09:02:00;101728.28;;;9.17;59.29
73748;BME280;62056;52.130;5.428;2023-04-25T09:04:30;101734.38;;;9.18;58.09
73748;BME280;62056;52.130;5.428;2023-04-25T09:06:57;101732.59;;;9.28;58.41
73748;BME280;62056;52.130;5.428;2023-04-25T09:09:24;101741.41;;;9.39;58.85
73748;BME280;62056;52.130;5.428;2023-04-25T09:11:54;101733.91;;;9.26;55.94
73748;BME280;62056;52.130;5.428;2023-04-25T09:14:22;101749.44;;;9.44;57.20
73748;BME280;62056;52.130;5.428;2023-04-25T09:19:34;101745.63;;;9.83;56.50
73748;BME280;62056;52.130;5.428;2023-04-25T09:22:07;101751.59;;;10.05;57.66
73748;BME280;62056;52.130;5.428;2023-04-25T09:24:38;101748.97;;;10.16;56.36
73748;BME280;62056;52.130;5.428;2023-04-25T09:27:07;101754.81;;;10.23;56.40
73748;BME280;62056;52.130;5.428;2023-04-25T09:29:39;101756.16;;;10.15;54.44
73748;BME280;62056;52.130;5.428;2023-04-25T09:32:17;101761.88;;;9.86;53.32
73748;BME280;62056;52.130;5.428;2023-04-25T09:34:53;101763.50;;;9.98;54.64
73748;BME280;62056;52.130;5.428;2023-04-25T09:37:24;101771.22;;;9.99;55.03
73748;BME280;62056;52.130;5.428;2023-04-25T09:39:55;101765.66;;;10.06;53.33
73748;BME280;62056;52.130;5.428;2023-04-25T09:42:23;101768.06;;;10.07;54.06
73748;BME280;62056;52.130;5.428;2023-04-25T09:44:55;101784.72;;;9.87;55.71
73748;BME280;62056;52.130;5.428;2023-04-25T09:47:24;101790.69;;;9.62;56.89
73748;BME280;62056;52.130;5.428;2023-04-25T09:49:52;101793.78;;;9.49;57.39
73748;BME280;62056;52.130;5.428;2023-04-25T09:52:21;101792.03;;;9.27;56.70
73748;BME280;62056;52.130;5.428;2023-04-25T09:54:51;101807.22;;;9.32;57.38
73748;BME280;62056;52.130;5.428;2023-04-25T09:57:22;101812.13;;;9.50;57.34
73748;BME280;62056;52.130;5.428;2023-04-25T09:59:53;101817.16;;;9.52;57.85
73748;BME280;62056;52.130;5.428;2023-04-25T10:02:24;101821.13;;;9.49;57.78
73748;BME280;62056;52.130;5.428;2023-04-25T10:05:19;101827.06;;;9.62;56.46
73748;BME280;62056;52.130;5.428;2023-04-25T10:07:46;101825.44;;;9.56;57.64
73748;BME280;62056;52.130;5.428;2023-04-25T10:10:13;101824.09;;;9.58;57.07
73748;BME280;62056;52.130;5.428;2023-04-25T10:12:39;101813.75;;;9.57;56.81
73748;BME280;62056;52.130;5.428;2023-04-25T10:15:08;101822.00;;;9.60;55.26
73748;BME280;62056;52.130;5.428;2023-04-25T10:17:35;101816.75;;;9.70;56.56
73748;BME280;62056;52.130;5.428;2023-04-25T10:20:02;101818.69;;;9.80;51.55
73748;BME280;62056;52.130;5.428;2023-04-25T10:22:38;101811.31;;;9.92;53.71
73748;BME280;62056;52.130;5.428;2023-04-25T10:25:06;101814.88;;;10.08;53.11
73748;BME280;62056;52.130;5.428;2023-04-25T10:27:35;101805.03;;;10.14;53.52
73748;BME280;62056;52.130;5.428;2023-04-25T10:30:06;101811.72;;;10.22;53.10
73748;BME280;62056;52.130;5.428;2023-04-25T10:32:37;101808.13;;;10.48;52.88
73748;BME280;62056;52.130;5.428;2023-04-25T10:35:16;101812.09;;;10.41;53.08
73748;BME280;62056;52.130;5.428;2023-04-25T10:38:04;101804.41;;;10.44;52.63
73748;BME280;62056;52.130;5.428;2023-04-25T10:40:32;101807.34;;;10.48;52.09
73748;BME280;62056;52.130;5.428;2023-04-25T10:43:34;101810.53;;;10.55;51.49
73748;BME280;62056;52.130;5.428;2023-04-25T10:46:03;101807.41;;;10.73;52.83
73748;BME280;62056;52.130;5.428;2023-04-25T10:48:44;101809.81;;;10.75;52.38
73748;BME280;62056;52.130;5.428;2023-04-25T10:51:21;101807.41;;;10.84;51.87
73748;BME280;62056;52.130;5.428;2023-04-25T10:54:06;101814.09;;;10.97;51.20
73748;BME280;62056;52.130;5.428;2023-04-25T10:56:40;101803.97;;;11.14;51.18
73748;BME280;62056;52.130;5.428;2023-04-25T10:59:14;101813.81;;;11.03;49.68
73748;BME280;62056;52.130;5.428;2023-04-25T11:01:49;101820.22;;;11.02;50.57
73748;BME280;62056;52.130;5.428;2023-04-25T11:04:30;101816.75;;;11.12;50.05
73748;BME280;62056;52.130;5.428;2023-04-25T11:07:19;101815.13;;;10.96;49.98
73748;BME280;62056;52.130;5.428;2023-04-25T11:09:49;101821.53;;;11.30;49.64
73748;BME280;62056;52.130;5.428;2023-04-25T11:12:16;101821.81;;;11.24;49.15
73748;BME280;62056;52.130;5.428;2023-04-25T11:14:44;101827.66;;;11.21;50.95
73748;BME280;62056;52.130;5.428;2023-04-25T11:17:11;101848.34;;;10.67;53.83
73748;BME280;62056;52.130;5.428;2023-04-25T11:19:38;101849.03;;;10.37;55.25
73748;BME280;62056;52.130;5.428;2023-04-25T11:22:05;101851.25;;;10.03;56.36
73748;BME280;62056;52.130;5.428;2023-04-25T11:24:34;101860.91;;;9.77;59.17
73748;BME280;62056;52.130;5.428;2023-04-25T11:27:03;101868.91;;;9.44;59.98
73748;BME280;62056;52.130;5.428;2023-04-25T11:29:31;101869.06;;;9.32;61.05
73748;BME280;62056;52.130;5.428;2023-04-25T11:31:59;101862.28;;;9.15;62.74
73748;BME280;62056;52.130;5.428;2023-04-25T11:34:27;101861.66;;;8.80;64.37
73748;BME280;62056;52.130;5.428;2023-04-25T11:36:57;101862.88;;;8.95;62.79
73748;BME280;62056;52.130;5.428;2023-04-25T11:39:27;101854.91;;;8.95;62.35
73748;BME280;62056;52.130;5.428;2023-04-25T11:41:54;101861.91;;;9.06;61.37
73748;BME280;62056;52.130;5.428;2023-04-25T11:44:22;101869.88;;;9.06;61.01
73748;BME280;62056;52.130;5.428;2023-04-25T11:46:49;101871.50;;;9.12;61.20
73748;BME280;62056;52.130;5.428;2023-04-25T11:49:16;101870.03;;;9.21;60.81
73748;BME280;62056;52.130;5.428;2023-04-25T11:51:47;101874.84;;;9.57;60.41
73748;BME280;62056;52.130;5.428;2023-04-25T11:54:15;101865.59;;;9.64;57.05
73748;BME280;62056;52.130;5.428;2023-04-25T11:56:43;101866.75;;;9.79;58.05
73748;BME280;62056;52.130;5.428;2023-04-25T11:59:23;101861.56;;;9.99;56.87
73748;BME280;62056;52.130;5.428;2023-04-25T12:01:56;101866.94;;;10.09;56.97
73748;BME280;62056;52.130;5.428;2023-04-25T12:04:30;101855.97;;;10.43;56.16
73748;BME280;62056;52.130;5.428;2023-04-25T12:07:09;101854.72;;;10.66;55.53
73748;BME280;62056;52.130;5.428;2023-04-25T12:09:37;101849.97;;;10.79;53.86
73748;BME280;62056;52.130;5.428;2023-04-25T12:12:09;101855.06;;;11.01;53.65
73748;BME280;62056;52.130;5.428;2023-04-25T12:14:46;101866.28;;;11.28;52.21
73748;BME280;62056;52.130;5.428;2023-04-25T12:17:38;101871.53;;;10.87;49.86
73748;BME280;62056;52.130;5.428;2023-04-25T12:20:10;101873.16;;;11.04;50.32
73748;BME280;62056;52.130;5.428;2023-04-25T12:22:44;101866.00;;;11.09;51.33
73748;BME280;62056;52.130;5.428;2023-04-25T12:25:12;101881.34;;;10.77;50.25
73748;BME280;62056;52.130;5.428;2023-04-25T12:27:40;101876.66;;;11.20;50.02
73748;BME280;62056;52.130;5.428;2023-04-25T12:30:08;101879.03;;;11.11;49.34
73748;BME280;62056;52.130;5.428;2023-04-25T12:32:35;101868.91;;;10.98;50.06
73748;BME280;62056;52.130;5.428;2023-04-25T12:35:04;101883.84;;;11.19;49.58
73748;BME280;62056;52.130;5.428;2023-04-25T12:37:30;101882.78;;;11.20;49.08
73748;BME280;62056;52.130;5.428;2023-04-25T12:39:57;101879.53;;;10.92;49.41
73748;BME280;62056;52.130;5.428;2023-04-25T12:42:24;101887.00;;;11.01;50.01
73748;BME280;62056;52.130;5.428;2023-04-25T12:44:51;101885.63;;;10.83;48.64
73748;BME280;62056;52.130;5.428;2023-04-25T12:47:18;101880.88;;;10.90;48.16
73748;BME280;62056;52.130;5.428;2023-04-25T12:49:45;101873.19;;;11.24;49.12
73748;BME280;62056;52.130;5.428;2023-04-25T12:52:11;101874.25;;;11.18;48.25
73748;BME280;62056;52.130;5.428;2023-04-25T12:54:38;101871.88;;;11.32;48.06
73748;BME280;62056;52.130;5.428;2023-04-25T12:57:05;101869.22;;;11.58;47.59
73748;BME280;62056;52.130;5.428;2023-04-25T12:59:32;101875.63;;;11.67;47.74
73748;BME280;62056;52.130;5.428;2023-04-25T13:01:58;101879.31;;;11.76;47.06
73748;BME280;62056;52.130;5.428;2023-04-25T13:04:25;101880.66;;;11.79;44.45
73748;BME280;62056;52.130;5.428;2023-04-25T13:06:54;101877.19;;;11.58;45.59